Pagina principală
METAR-TAF:

METAR-TAF

Aeroporturi :

Bluefields, Nicaragua

Latitudine: 12-00N, longitudine: 083-46W, elevație: 5 m

Observații meteo curente

Raportul a fost făcut în urmă cu 32 de minute, la 17:00 UTC
Vânt 8 kt de la Est
Temperatură 32°C
Umiditate 71%
Presiune 1013 hPa
Vizibilitate de 10 km sau mai mult
Nori fragmentați la o înălțime de 1900 picior

METAR: MNBL 181700Z 10008KT 9999 BKN019 32/26 Q1013

Ora: 11:32 (17:32 UTC)

Prognoză

Raportul a fost făcut în urmă cu 20 ore și 32 de minute, la 21:00 UTC
Prognoză valabilă de la 18 ora 00 UTC la 18 ora 24 UTC
Vânt 4 kt de la Est
Vizibilitate de 10 km sau mai mult
Nori împrăștiați la o înălțime de 2300 picior
Temporar
de la 18 ora 08 UTC la 18 ora 13 UTC
Vânt 10 kt de la Est/Nord-est
Vizibilitate: 8000 m
Nori fragmentați la o înălțime de 1700 picior
în apropiere, ploaie,

TAF: MNBL 172100Z 1800/1824 08004KT 9999 SCT023 TEMPO 1808/1813 07010KT 8000 VCRA BKN017

Observații și prognoze meteo pentru peste 4.000 de aeroporturi (rapoarte METAR și TAF).

Stațiile disponibile sunt reprezentate pe hartă prin puncte galbene și roșii.

Țineți indicatorul mouse-ului pe punctul dorit pentru a vedea denumirea stației.

Apoi, faceți clic pentru a vedea observațiile și prognozele meteorologice.

Pentru a schimba harta: Pentru mărire, faceți clic pe butoanele verzi cu cruce neagră; pentru micșorare, pe butonul verde cu o liniuță; pentru hărți învecinate, pe săgețile verzi.


METAR-TAF: